• Join FlightAware (Why Join?)
  • Login
  • US Flag 
11:35AM EDT


 

Airport Tracker/Info


-or-


 

Live Flight TrackerFlight Track Log ✈ SWA378 ✈ 06-May-2013 ✈ KATL - KORF

Flight Track Log - Related Links

Times and Time Zones

All times are in EDT time to prevent confusion due to time zone crossing. See the SWA378 flight status page for this flight to view local times or setup timezone preferences in your user account.

Time Position Orientation Groundspeed Altitude Reporting Facility
EDT Latitude Longitude Course Direction KTS MPH feet Rate Location/Type
06:39PM 33.6333 -84.4500 253° West 164 189 2,200  Level Atlanta TRACON
06:40PM 33.6167 -84.5167 253° West 207 238 4,800 3,000 Climbing Atlanta TRACON
06:41PM 33.5833 -84.5833 239° Southwest 264 304 8,200 2,700 Climbing Atlanta TRACON
06:42PM 33.5000 -84.5833 180° South 288 331 10,300 2,400 Climbing Atlanta TRACON
06:44PM 33.4578 -84.3325 101° East 342 394 16,500 2,460 Climbing Atlanta Center
06:45PM 33.4853 -84.2056 75° East 397 457 18,900 2,460 Climbing Atlanta Center
06:47PM 33.5939 -83.9514 63° Northeast 426 490 23,900 2,160 Climbing Atlanta Center
06:49PM 33.6558 -83.6619 76° East 442 509 27,600 1,860 Climbing Atlanta Center
06:50PM 33.7139 -83.5069 66° East 460 529 29,500 1,740 Climbing Atlanta Center
06:51PM 33.7714 -83.3642 64° Northeast 471 542 31,100 1,380 Climbing Atlanta Center
06:52PM 33.8311 -83.2186 64° Northeast 482 555 32,300 1,440 Climbing Atlanta Center
06:53PM 33.8928 -83.0678 64° Northeast 490 564 34,000 1,620 Climbing Atlanta Center
06:54PM 33.9478 -82.9219 66° East 485 558 35,600 1,380 Climbing Atlanta Center
06:55PM 34.0069 -82.7733 64° Northeast 490 564 36,800 1,440 Climbing Atlanta Center
06:56PM 34.0658 -82.6294 64° Northeast 478 550 38,500 540 Climbing Atlanta Center
06:58PM 34.1207 -82.4546 68° East  Level FlightAware Approximate
06:59PM 34.2353 -82.1944 60° Northeast 468 539 39,000  Level Atlanta Center
07:00PM 34.3019 -82.0547 60° Northeast 468 539 39,000  Level Atlanta Center
07:02PM 34.4392 -81.7819 59° Northeast 468 539 39,000  Level Atlanta Center
07:03PM 34.5097 -81.6442 58° Northeast 474 545 39,000  Level Atlanta Center
07:04PM 34.5758 -81.5008 61° Northeast 479 551 39,000  Level Atlanta Center
07:05PM 34.4843 -81.6555 60° Northeast  Level FlightAware Approximate
07:05PM 34.6439 -81.3650 59° Northeast 474 545 39,000  Level Atlanta Center
07:07PM 34.7110 -81.1949 59° Northeast  Level FlightAware Approximate
07:07PM 34.7794 -81.0875 59° Northeast 473 544 39,000  Level Atlanta Center
07:08PM 34.8489 -80.9483 59° Northeast 478 550 39,000  Level Atlanta Center
07:09PM 34.9142 -80.8117 60° Northeast 478 550 39,000  Level Atlanta Center
07:10PM 34.9814 -80.6722 59° Northeast 478 550 39,000  Level Atlanta Center
07:11PM 35.0486 -80.5325 60° Northeast 478 550 39,000 -480 Level Atlanta Center
07:13PM 35.1364 -80.3133 64° Northeast 479 551 37,800 -780 Descending Washington Center
07:14PM 35.1861 -80.1639 68° East 471 542 37,000 -420 Descending Washington Center
07:15PM 35.2353 -80.0217 67° East 460 529 37,000  Level Washington Center
07:16PM 35.2867 -79.8719 67° East 460 529 37,000  Level Washington Center
07:17PM 35.3336 -79.7242 69° East 465 535 37,000  Level Washington Center
07:18PM 35.3800 -79.5814 68° East 465 535 37,000 -480 Level Washington Center
07:20PM 35.4861 -79.2731 67° East 471 542 35,600 -840 Descending Washington Center
07:21PM 35.5300 -79.1294 69° East 458 527 34,600 -960 Descending Washington Center
07:22PM 35.5692 -79.0011 69° East 442 509 33,700 -960 Descending Washington Center
07:24PM 35.6636 -78.8092 46° Northeast  Level Estimated
07:25PM 35.7169 -78.5494 46° Northeast 453 521 30,800  Level Washington Center
07:26PM 35.7622 -78.4025 69° East 453 521 29,700 -1,080 Descending Washington Center
07:27PM 35.8072 -78.2556 69° East 453 521 28,700 -1,500 Descending Washington Center
07:29PM 35.8967 -77.9689 69° East 447 514 25,300 -1,920 Descending Washington Center
07:30PM 35.9389 -77.8342 69° East 431 496 23,000 -2,220 Descending Washington Center
07:31PM 35.9811 -77.7019 68° East 421 484 21,000 -660 Descending Washington Center
07:33PM 36.0956 -77.4583 60° Northeast 405 466 21,000  Level Washington Center
07:34PM 36.1558 -77.3386 58° Northeast 405 466 21,000 -360 Level Washington Center
07:35PM 36.2033 -77.2292 62° Northeast 405 466 20,300 -1,440 Descending Washington Center
07:36PM 36.2633 -77.1014 60° Northeast 400 460 18,200 -1,980 Descending Washington Center
07:36PM 36.2933 -77.0403 59° Northeast 374 430 17,100 -2,280 Descending Washington Center
07:37PM 36.3128 -76.9917 64° Northeast 385 443 16,000 -2,880 Descending Washington Center
07:37PM 36.3489 -76.9303 54° Northeast 374 430 14,200 -3,000 Descending Washington Center
07:38PM 36.3764 -76.8844 53° Northeast 379 436 13,000 -2,400 Descending Washington Center
07:38PM 36.4189 -76.8308 45° Northeast 392 451 11,800 -1,620 Descending Washington Center
07:39PM 36.4442 -76.7875 54° Northeast 379 436 11,400 -1,140 Descending Washington Center
07:39PM 36.4803 -76.7389 47° Northeast 328 377 10,700 -1,500 Descending Washington Center
07:40PM 36.5331 -76.6647 48° Northeast 307 353 9,100 -1,920 Descending Washington Center
07:41PM 36.5583 -76.6236 53° Northeast 321 369 8,100 -2,220 Descending Washington Center
07:41PM 36.5881 -76.5775 51° Northeast 304 350 6,900 -1,680 Descending Washington Center
07:42PM 36.6114 -76.5417 51° Northeast 301 346 6,400 -1,320 Descending Washington Center
07:42PM 36.6344 -76.5108 47° Northeast 273 314 5,700 -1,380 Descending Washington Center
07:43PM 36.6597 -76.4722 51° Northeast 286 329 5,100 -1,020 Descending Washington Center
07:43PM 36.6744 -76.4492 51° Northeast 258 297 4,800 -720 Descending Washington Center
07:44PM 36.7019 -76.4081 50° Northeast 259 298 4,400 -600 Descending Washington Center
07:44PM 36.7125 -76.3925 50° Northeast 218 251 4,300 -720 Descending Washington Center
07:45PM 36.7419 -76.3514 48° Northeast 233 268 3,700 -1,080 Descending Washington Center
07:46PM 36.7967 -76.3000 37° Northeast 201 231 2,300 -1,200 Descending Washington Center
07:48PM 36.8833 -76.2000 North  Level FlightAware Approximate